CheckWX is a tool to help pilots better visualize weather data.  It is not intended as a substitute for an official pre-flight weather briefing.

04:19:52 UTC

KRKW METAR
Rockwood Municipal Airport
Rockwood, Tennessee, USA
Current

40 mins ago

KRKW 270340Z AUTO 25004KT 10SM CLR 20/17 A3023 RMK A01
Observed
Jun-27 @ 03:40 UTC
Wind
  • 250° at 4 KTS
Visibility
10 SM
Flight Rules
VFR
Cloud Levels
  • Clear skies
Temperature
20°C / 68°F
Dewpoint
17°C / 63°F
Humidity
83%
Altimeter
30.23" Hg
Pressure
1023.72 hPa
Previous

60 mins ago

KRKW 270320Z AUTO 26004KT 10SM CLR 19/18 A3024 RMK A01
Observed
Jun-27 @ 03:20 UTC
Wind
  • 260° at 4 KTS
Visibility
10 SM
Flight Rules
VFR
Cloud Levels
  • Clear skies
Temperature
19°C / 66°F
Dewpoint
18°C / 64°F
Humidity
94%
Altimeter
30.24" Hg
Pressure
1024.02 hPa
Previous

1 hour ago

KRKW 270300Z AUTO 25004KT 10SM CLR 19/18 A3023 RMK A01
Observed
Jun-27 @ 03:00 UTC
Wind
  • 250° at 4 KTS
Visibility
10 SM
Flight Rules
VFR
Cloud Levels
  • Clear skies
Temperature
19°C / 66°F
Dewpoint
18°C / 64°F
Humidity
94%
Altimeter
30.23" Hg
Pressure
1023.72 hPa